createdAt,value
2023-04-14T00:01:17.456Z,46.91
2023-04-14T00:03:47.631Z,47.30
2023-04-14T00:06:17.662Z,47.41
2023-04-14T00:08:46.048Z,47.84
2023-04-14T00:11:14.603Z,48.06
2023-04-14T00:13:43.089Z,48.41
2023-04-14T00:16:12.306Z,48.43
2023-04-14T00:18:41.617Z,48.81
2023-04-14T00:21:09.914Z,48.74
2023-04-14T00:23:39.927Z,48.66
2023-04-14T00:26:08.319Z,48.35
2023-04-14T00:28:37.656Z,49.13
2023-04-14T00:31:06.765Z,49.33
2023-04-14T00:33:35.344Z,49.52
2023-04-14T00:36:03.930Z,49.21
2023-04-14T00:38:32.673Z,49.45
2023-04-14T00:41:02.512Z,49.44
2023-04-14T00:43:31.120Z,49.47
2023-04-14T00:46:00.865Z,49.59
2023-04-14T00:48:30.722Z,49.54
2023-04-14T00:50:59.148Z,49.68
2023-04-14T00:53:28.106Z,50.07
2023-04-14T00:55:56.910Z,49.69
2023-04-14T00:58:26.997Z,49.63
2023-04-14T01:00:57.379Z,50.25
2023-04-14T01:03:26.044Z,50.27
2023-04-14T01:05:54.453Z,50.72
2023-04-14T01:08:23.971Z,50.29
2023-04-14T01:11:12.210Z,50.46
2023-04-14T01:13:47.768Z,50.26
2023-04-14T01:16:19.613Z,50.06
2023-04-14T01:18:53.929Z,50.42
2023-04-14T01:21:26.542Z,50.57
2023-04-14T01:24:09.966Z,50.32
2023-04-14T01:26:38.845Z,50.32
2023-04-14T01:29:41.258Z,50.39
2023-04-14T01:32:13.163Z,50.73
2023-04-14T01:34:46.213Z,50.99
2023-04-14T01:37:17.325Z,50.92
2023-04-14T01:39:49.843Z,50.80
2023-04-14T01:42:27.750Z,51.00
2023-04-14T01:44:58.708Z,50.86
2023-04-14T01:47:30.743Z,51.10
2023-04-14T01:50:01.158Z,51.05
2023-04-14T01:52:31.043Z,51.23
2023-04-14T01:55:01.649Z,51.49
2023-04-14T01:57:30.257Z,51.11
2023-04-14T02:00:00.781Z,51.04
2023-04-14T02:02:31.136Z,51.14
2023-04-14T02:05:00.426Z,51.20
2023-04-14T02:07:29.952Z,51.62
2023-04-14T02:09:58.866Z,51.45
2023-04-14T02:12:29.294Z,51.73
2023-04-14T02:15:00.139Z,51.71
2023-04-14T02:17:30.928Z,52.03
2023-04-14T02:19:59.700Z,51.79
2023-04-14T02:22:28.330Z,52.08
2023-04-14T02:24:56.792Z,51.90
2023-04-14T02:27:27.909Z,52.14
2023-04-14T02:29:56.628Z,52.25
2023-04-14T02:32:26.928Z,51.99
2023-04-14T02:35:02.192Z,52.19
2023-04-14T02:37:36.012Z,52.46
2023-04-14T02:40:12.641Z,52.62
2023-04-14T02:42:42.831Z,52.27
2023-04-14T02:45:16.481Z,52.60
2023-04-14T02:47:47.987Z,52.60
2023-04-14T02:50:20.958Z,52.58
2023-04-14T02:53:01.788Z,52.87
2023-04-14T02:55:37.658Z,52.29
2023-04-14T02:58:06.534Z,52.60
2023-04-14T03:00:39.755Z,52.53
2023-04-14T03:03:09.532Z,52.79
2023-04-14T03:05:44.321Z,52.35
2023-04-14T03:08:13.685Z,52.49
2023-04-14T03:10:46.538Z,52.89
2023-04-14T03:13:17.908Z,52.58
2023-04-14T03:15:48.907Z,52.29
2023-04-14T03:18:18.943Z,52.35
2023-04-14T03:20:53.121Z,51.70
2023-04-14T03:23:23.103Z,52.50
2023-04-14T03:25:57.423Z,52.02
2023-04-14T03:28:32.587Z,51.94
2023-04-14T03:31:05.460Z,51.86
2023-04-14T03:33:46.729Z,51.70
2023-04-14T03:36:21.791Z,51.67
2023-04-14T03:38:51.528Z,52.24
2023-04-14T03:41:21.292Z,51.85
2023-04-14T03:43:54.793Z,51.54
2023-04-14T03:46:24.126Z,51.58
2023-04-14T03:48:56.139Z,51.55
2023-04-14T03:51:28.083Z,50.92
2023-04-14T03:54:00.532Z,51.04
2023-04-14T03:56:30.927Z,51.15
2023-04-14T03:58:59.634Z,50.87
2023-04-14T04:01:28.715Z,51.39
2023-04-14T04:03:57.353Z,51.22
2023-04-14T04:06:30.269Z,51.23
2023-04-14T04:08:59.479Z,51.60
2023-04-14T04:11:28.767Z,51.48
2023-04-14T04:13:58.848Z,51.64
2023-04-14T04:16:28.345Z,51.77
2023-04-14T04:18:57.114Z,51.61
2023-04-14T04:21:34.273Z,51.88
2023-04-14T04:24:03.740Z,51.98
2023-04-14T04:26:33.079Z,51.91
2023-04-14T04:29:04.941Z,51.76
2023-04-14T04:31:33.721Z,51.31
2023-04-14T04:34:03.128Z,51.59
2023-04-14T04:36:41.735Z,50.94
2023-04-14T04:39:10.657Z,50.90
2023-04-14T04:41:42.267Z,51.08
2023-04-14T04:44:11.453Z,51.25
2023-04-14T04:46:48.805Z,51.17
2023-04-14T04:49:18.605Z,50.85
2023-04-14T04:51:49.206Z,50.25
2023-04-14T04:54:21.994Z,49.89
2023-04-14T04:56:50.610Z,50.04
2023-04-14T04:59:19.177Z,50.50
2023-04-14T05:01:48.226Z,50.51
2023-04-14T05:04:17.284Z,49.75
2023-04-14T05:06:45.789Z,49.70
2023-04-14T05:09:15.511Z,49.35
2023-04-14T05:11:44.034Z,49.30
2023-04-14T05:14:12.577Z,48.74
2023-04-14T05:16:40.970Z,48.58
2023-04-14T05:19:09.230Z,48.42
2023-04-14T05:21:37.756Z,48.84
2023-04-14T05:24:06.837Z,48.53
2023-04-14T05:26:57.770Z,48.03
2023-04-14T05:29:25.438Z,47.66
2023-04-14T05:31:54.168Z,47.65
2023-04-14T05:34:22.772Z,47.70
2023-04-14T05:36:51.685Z,47.29
2023-04-14T05:39:23.329Z,47.54
2023-04-14T05:41:53.886Z,47.17
2023-04-14T05:44:23.950Z,47.30
2023-04-14T05:46:52.981Z,46.35
2023-04-14T05:49:21.405Z,46.75
2023-04-14T05:51:49.766Z,45.90
2023-04-14T05:54:18.050Z,46.44
2023-04-14T05:56:46.574Z,46.05
2023-04-14T05:59:17.502Z,45.42
2023-04-14T06:01:46.017Z,45.81
2023-04-14T06:04:15.327Z,45.45
2023-04-14T06:06:44.030Z,44.78
2023-04-14T06:09:12.326Z,45.25
2023-04-14T06:11:42.237Z,44.49
2023-04-14T06:14:10.766Z,44.16
2023-04-14T06:16:40.587Z,43.75
2023-04-14T06:19:08.966Z,44.33
2023-04-14T06:21:37.413Z,43.65
2023-04-14T06:24:06.455Z,43.70
2023-04-14T06:26:35.071Z,43.19
2023-04-14T06:29:07.745Z,43.59
2023-04-14T06:31:36.555Z,42.93
2023-04-14T06:34:09.563Z,42.76
2023-04-14T06:36:38.000Z,42.27
2023-04-14T06:39:06.448Z,41.76
2023-04-14T06:41:34.800Z,41.29
2023-04-14T06:44:07.525Z,41.39
2023-04-14T06:46:36.361Z,40.74
2023-04-14T06:49:04.772Z,40.72
2023-04-14T06:51:37.255Z,41.02
2023-04-14T06:54:06.348Z,41.25
2023-04-14T06:56:34.792Z,40.62
2023-04-14T06:59:03.810Z,40.52
2023-04-14T07:01:32.496Z,40.40
2023-04-14T07:04:06.859Z,40.25
2023-04-14T07:06:40.905Z,39.47
2023-04-14T07:09:09.789Z,39.67
2023-04-14T07:11:38.345Z,39.25
2023-04-14T07:14:07.842Z,38.86
2023-04-14T07:16:36.550Z,38.73
2023-04-14T07:19:05.622Z,38.00
2023-04-14T07:21:34.450Z,37.61
2023-04-14T07:24:05.041Z,37.81
2023-04-14T07:26:33.660Z,37.71
2023-04-14T07:29:02.462Z,37.34
2023-04-14T07:31:34.236Z,37.05
2023-04-14T07:34:03.221Z,37.40
2023-04-14T07:36:33.210Z,36.51
2023-04-14T07:39:04.145Z,36.56
2023-04-14T07:41:33.993Z,36.91
2023-04-14T07:44:03.369Z,36.17
2023-04-14T07:46:32.585Z,36.31
2023-04-14T07:49:01.398Z,35.82
2023-04-14T07:51:31.708Z,36.50
2023-04-14T07:54:01.792Z,35.93
2023-04-14T07:56:32.220Z,36.32
2023-04-14T07:59:01.041Z,36.02
2023-04-14T08:01:32.473Z,35.27
2023-04-14T08:04:01.778Z,34.18
2023-04-14T08:06:30.472Z,34.80
2023-04-14T08:09:01.771Z,34.59
2023-04-14T08:11:35.147Z,35.45
2023-04-14T08:14:04.658Z,35.11
2023-04-14T08:16:37.020Z,35.55
2023-04-14T08:19:06.371Z,35.22
2023-04-14T08:21:35.186Z,35.08
2023-04-14T08:24:07.450Z,34.67
2023-04-14T08:26:37.490Z,34.46
2023-04-14T08:29:06.161Z,34.27
2023-04-14T08:31:36.753Z,33.59
2023-04-14T08:34:05.503Z,33.37
2023-04-14T08:36:35.806Z,33.34
2023-04-14T08:39:04.767Z,33.05
2023-04-14T08:41:37.467Z,32.22
2023-04-14T08:44:07.813Z,32.11
2023-04-14T08:46:37.200Z,33.01
2023-04-14T08:49:06.903Z,33.83
2023-04-14T08:51:36.982Z,33.14
2023-04-14T08:54:07.745Z,32.84
2023-04-14T08:56:39.413Z,32.39
2023-04-14T08:59:11.893Z,33.15
2023-04-14T09:01:41.549Z,33.71
2023-04-14T09:04:10.491Z,32.96
2023-04-14T09:06:39.199Z,32.77
2023-04-14T09:09:08.985Z,32.47
2023-04-14T09:11:38.177Z,32.47
2023-04-14T09:14:06.742Z,32.19
2023-04-14T09:16:38.233Z,33.00
2023-04-14T09:19:07.935Z,32.31
2023-04-14T09:21:51.688Z,32.23
2023-04-14T09:24:30.260Z,32.79
2023-04-14T09:27:01.890Z,32.10
2023-04-14T09:29:30.718Z,32.00
2023-04-14T09:32:01.276Z,31.71
2023-04-14T09:34:30.343Z,31.62
2023-04-14T09:37:05.020Z,31.45
2023-04-14T09:39:33.673Z,30.96
2023-04-14T09:42:02.900Z,32.00
2023-04-14T09:44:32.058Z,31.18
2023-04-14T09:47:03.165Z,31.25
2023-04-14T09:49:33.390Z,30.61
2023-04-14T09:52:07.587Z,30.60
2023-04-14T09:54:37.562Z,31.19
2023-04-14T09:57:06.448Z,30.55
2023-04-14T09:59:36.894Z,30.42
2023-04-14T10:02:08.476Z,30.75
2023-04-14T10:04:38.601Z,30.87
2023-04-14T10:07:08.992Z,30.87
2023-04-14T10:09:39.241Z,30.29
2023-04-14T10:12:14.000Z,30.45
2023-04-14T10:14:43.650Z,30.84
2023-04-14T10:17:15.059Z,30.38
2023-04-14T10:19:43.826Z,29.74
2023-04-14T10:22:12.839Z,29.64
2023-04-14T10:24:42.209Z,29.69
2023-04-14T10:27:13.549Z,29.56
2023-04-14T10:29:42.371Z,30.10
2023-04-14T10:32:17.773Z,29.76
2023-04-14T10:34:59.299Z,29.53
2023-04-14T10:37:28.760Z,29.84
2023-04-14T10:39:58.135Z,29.83
2023-04-14T10:42:26.979Z,29.17
2023-04-14T10:45:07.159Z,29.37
2023-04-14T10:47:41.725Z,29.01
2023-04-14T10:50:14.898Z,29.17
2023-04-14T10:52:56.877Z,28.25
2023-04-14T10:55:30.630Z,28.70
2023-04-14T10:58:06.576Z,27.92
2023-04-14T11:00:39.458Z,28.59
2023-04-14T11:03:12.884Z,27.90
2023-04-14T11:05:46.996Z,27.88
2023-04-14T11:08:17.506Z,27.98
2023-04-14T11:10:51.441Z,27.81
2023-04-14T11:13:20.531Z,28.02
2023-04-14T11:15:53.429Z,27.92
2023-04-14T11:18:34.462Z,27.12
2023-04-14T11:21:06.075Z,26.82
2023-04-14T11:23:36.200Z,26.92
2023-04-14T11:26:07.284Z,26.95
2023-04-14T11:28:37.328Z,26.88
2023-04-14T11:31:08.551Z,26.76
2023-04-14T11:33:41.718Z,26.69
2023-04-14T11:36:12.664Z,26.92
2023-04-14T11:38:41.687Z,26.48
2023-04-14T11:41:10.866Z,26.49
2023-04-14T11:43:46.563Z,27.05
2023-04-14T11:46:16.852Z,25.82
2023-04-14T11:48:47.512Z,26.43
2023-04-14T11:51:16.122Z,26.17
2023-04-14T11:53:46.174Z,26.21
2023-04-14T11:56:15.491Z,26.19
2023-04-14T11:58:44.081Z,25.25
2023-04-14T12:01:15.093Z,25.21
2023-04-14T12:03:44.238Z,25.46
2023-04-14T12:06:14.356Z,25.91
2023-04-14T12:08:43.026Z,25.76
2023-04-14T12:11:15.034Z,25.11
2023-04-14T12:13:45.431Z,24.88
2023-04-14T12:16:15.076Z,24.73
2023-04-14T12:18:44.161Z,24.04
2023-04-14T12:21:18.522Z,24.39
2023-04-14T12:23:49.778Z,24.35
2023-04-14T12:26:18.494Z,24.50
2023-04-14T12:28:47.378Z,24.32
2023-04-14T12:31:16.183Z,23.86
2023-04-14T12:33:45.811Z,24.15
2023-04-14T12:36:16.054Z,24.28
2023-04-14T12:38:51.923Z,24.60
2023-04-14T12:41:24.191Z,24.52
2023-04-14T12:43:53.281Z,24.65
2023-04-14T12:46:27.365Z,24.36
2023-04-14T12:48:56.119Z,23.57
2023-04-14T12:51:26.262Z,23.89
2023-04-14T12:54:09.204Z,23.88
2023-04-14T12:56:43.251Z,23.33
2023-04-14T12:59:11.916Z,23.54
2023-04-14T13:01:40.526Z,22.85
2023-04-14T13:04:09.360Z,22.88
2023-04-14T13:06:39.745Z,23.00
2023-04-14T13:09:08.882Z,23.14
2023-04-14T13:11:39.800Z,22.97
2023-04-14T13:14:11.644Z,23.03
2023-04-14T13:16:40.338Z,22.48
2023-04-14T13:19:09.001Z,22.84
2023-04-14T13:21:39.618Z,22.82
2023-04-14T13:24:08.356Z,23.39
2023-04-14T13:26:38.904Z,23.33
2023-04-14T13:29:07.442Z,22.89
2023-04-14T13:31:36.208Z,22.51
2023-04-14T13:34:05.236Z,22.00
2023-04-14T13:36:36.651Z,21.86
2023-04-14T13:39:07.017Z,21.68
2023-04-14T13:41:35.638Z,21.81
2023-04-14T13:44:07.289Z,22.58
2023-04-14T13:46:41.167Z,22.41
2023-04-14T13:49:16.146Z,22.59
2023-04-14T13:51:44.818Z,22.67
2023-04-14T13:54:14.789Z,22.38
2023-04-14T13:56:43.758Z,22.75
2023-04-14T13:59:12.357Z,22.95
2023-04-14T14:01:41.303Z,22.45
2023-04-14T14:04:10.076Z,22.33
2023-04-14T14:06:45.196Z,22.29
2023-04-14T14:09:17.598Z,22.85
2023-04-14T14:11:46.868Z,22.75
2023-04-14T14:14:15.438Z,22.86
2023-04-14T14:16:44.267Z,22.48
2023-04-14T14:19:16.961Z,22.53
2023-04-14T14:21:46.078Z,22.64
2023-04-14T14:24:16.172Z,22.29
2023-04-14T14:26:47.944Z,22.21
2023-04-14T14:29:17.025Z,22.40
2023-04-14T14:31:45.622Z,21.83
2023-04-14T14:34:14.494Z,22.27
2023-04-14T14:36:43.055Z,21.87
2023-04-14T14:39:11.886Z,22.03
2023-04-14T14:41:42.213Z,21.80
2023-04-14T14:44:10.790Z,21.77
2023-04-14T14:46:44.221Z,21.79
2023-04-14T14:49:14.532Z,22.44
2023-04-14T14:51:43.326Z,22.60
2023-04-14T14:54:12.247Z,22.30
2023-04-14T14:56:43.929Z,22.94
2023-04-14T14:59:12.846Z,22.44
2023-04-14T15:01:41.396Z,23.03
2023-04-14T15:04:10.781Z,22.22
2023-04-14T15:06:39.511Z,22.17
2023-04-14T15:09:08.159Z,21.95
2023-04-14T15:11:36.875Z,22.40
2023-04-14T15:14:07.363Z,21.90
2023-04-14T15:16:35.999Z,22.29
2023-04-14T15:19:05.511Z,22.01
2023-04-14T15:21:34.383Z,21.85
2023-04-14T15:24:03.060Z,22.14
2023-04-14T15:26:31.445Z,22.25
2023-04-14T15:29:01.410Z,22.03
2023-04-14T15:31:31.294Z,22.51
2023-04-14T15:34:02.021Z,22.53
2023-04-14T15:36:31.689Z,22.16
2023-04-14T15:39:00.100Z,22.68
2023-04-14T15:41:28.887Z,22.12
2023-04-14T15:43:57.465Z,21.95
2023-04-14T15:46:27.377Z,21.74
2023-04-14T15:48:57.399Z,22.49
2023-04-14T15:51:32.010Z,22.02
2023-04-14T15:54:01.072Z,22.31
2023-04-14T15:56:30.005Z,22.46
2023-04-14T15:58:58.980Z,21.95
2023-04-14T16:01:27.402Z,22.68
2023-04-14T16:04:00.368Z,22.43
2023-04-14T16:06:32.251Z,22.52
2023-04-14T16:09:01.153Z,21.98
2023-04-14T16:11:29.984Z,21.94
2023-04-14T16:13:58.536Z,21.68
2023-04-14T16:16:27.006Z,22.07
2023-04-14T16:18:57.293Z,21.92
2023-04-14T16:21:25.650Z,21.87
2023-04-14T16:23:54.279Z,21.73
2023-04-14T16:26:23.859Z,21.69
2023-04-14T16:28:52.582Z,22.00
2023-04-14T16:31:21.069Z,21.42
2023-04-14T16:33:49.714Z,21.39
2023-04-14T16:36:21.877Z,21.85
2023-04-14T16:38:51.081Z,21.81
2023-04-14T16:41:20.409Z,22.18
2023-04-14T16:43:49.107Z,21.89
2023-04-14T16:46:17.756Z,22.48
2023-04-14T16:48:46.585Z,22.13
2023-04-14T16:51:14.996Z,22.06
2023-04-14T16:53:44.781Z,22.31
2023-04-14T16:56:13.249Z,22.36
2023-04-14T16:58:42.270Z,22.72
2023-04-14T17:01:12.891Z,22.77
2023-04-14T17:03:42.549Z,23.44
2023-04-14T17:06:11.224Z,23.02
2023-04-14T17:08:39.910Z,23.59
2023-04-14T17:11:10.728Z,23.90
2023-04-14T17:13:39.217Z,23.33
2023-04-14T17:16:09.612Z,23.65
2023-04-14T17:18:38.150Z,23.87
2023-04-14T17:21:07.478Z,22.76
2023-04-14T17:23:37.705Z,22.72
2023-04-14T17:26:06.832Z,23.55
2023-04-14T17:28:38.654Z,23.30
2023-04-14T17:31:12.708Z,23.93
2023-04-14T17:33:42.256Z,24.24
2023-04-14T17:36:12.658Z,23.51
2023-04-14T17:38:42.949Z,24.37
2023-04-14T17:41:12.924Z,23.77
2023-04-14T17:43:43.065Z,23.74
2023-04-14T17:46:12.163Z,23.81
2023-04-14T17:48:40.663Z,24.27
2023-04-14T17:51:09.168Z,24.26
2023-04-14T17:53:37.615Z,24.29
2023-04-14T17:56:07.143Z,24.41
2023-04-14T17:58:35.742Z,24.36
2023-04-14T18:01:06.595Z,25.13
2023-04-14T18:03:37.615Z,24.48
2023-04-14T18:06:06.934Z,24.61
2023-04-14T18:08:35.519Z,24.47
2023-04-14T18:11:04.787Z,24.49
2023-04-14T18:13:33.662Z,24.72
2023-04-14T18:16:02.077Z,25.19
2023-04-14T18:18:31.908Z,24.78
2023-04-14T18:21:01.323Z,24.48
2023-04-14T18:23:30.015Z,25.10
2023-04-14T18:28:33.476Z,25.08
2023-04-14T18:31:02.380Z,24.75
2023-04-14T18:33:33.431Z,25.11
2023-04-14T18:36:02.383Z,25.40
2023-04-14T18:38:30.836Z,25.40
2023-04-14T18:41:03.686Z,25.07
2023-04-14T18:43:32.754Z,25.40
2023-04-14T18:46:01.377Z,25.64
2023-04-14T18:48:30.084Z,25.00
2023-04-14T18:51:02.044Z,25.25
2023-04-14T18:53:32.057Z,25.21
2023-04-14T18:56:00.911Z,25.88
2023-04-14T18:58:30.471Z,25.56
2023-04-14T19:00:58.805Z,25.30
2023-04-14T19:03:28.590Z,25.47
2023-04-14T19:05:57.401Z,25.14
2023-04-14T19:08:27.407Z,25.25
2023-04-14T19:10:55.794Z,25.07
2023-04-14T19:13:24.623Z,25.29
2023-04-14T19:15:53.056Z,25.51
2023-04-14T19:18:21.859Z,25.37
2023-04-14T19:20:50.576Z,25.35
2023-04-14T19:23:19.546Z,25.25
2023-04-14T19:25:50.622Z,25.49
2023-04-14T19:28:18.978Z,25.76
2023-04-14T19:30:47.459Z,25.48
2023-04-14T19:33:16.703Z,25.78
2023-04-14T19:35:45.436Z,25.46
2023-04-14T19:38:13.971Z,25.79
2023-04-14T19:40:48.229Z,25.98
2023-04-14T19:43:18.646Z,26.45
2023-04-14T19:45:52.811Z,25.84
2023-04-14T19:48:23.975Z,26.05
2023-04-14T19:50:55.541Z,25.99
2023-04-14T19:53:24.796Z,25.69
2023-04-14T19:55:53.836Z,26.12
2023-04-14T19:58:24.702Z,25.87
2023-04-14T20:00:57.394Z,25.92
2023-04-14T20:03:30.106Z,26.39
2023-04-14T20:06:00.189Z,25.77
2023-04-14T20:08:30.859Z,26.28
2023-04-14T20:10:59.534Z,26.33
2023-04-14T20:13:32.129Z,26.06
2023-04-14T20:16:01.572Z,26.04
2023-04-14T20:18:30.095Z,25.91
2023-04-14T20:20:59.243Z,26.51
2023-04-14T20:23:28.001Z,26.92
2023-04-14T20:25:56.826Z,26.45
2023-04-14T20:28:26.233Z,26.48
2023-04-14T20:30:56.356Z,26.27
2023-04-14T20:33:25.283Z,26.35
2023-04-14T20:35:54.434Z,26.67
2023-04-14T20:38:23.746Z,26.43
2023-04-14T20:40:52.880Z,26.64
2023-04-14T20:43:21.737Z,26.21
2023-04-14T20:45:52.709Z,26.40
2023-04-14T20:48:22.571Z,26.71
2023-04-14T20:50:50.964Z,26.78
2023-04-14T20:53:22.126Z,26.61
2023-04-14T20:55:51.117Z,27.47
2023-04-14T20:58:19.521Z,27.25
2023-04-14T21:00:47.931Z,27.06
2023-04-14T21:03:16.512Z,27.08
2023-04-14T21:05:46.397Z,27.34
2023-04-14T21:08:14.832Z,27.35
2023-04-14T21:11:14.563Z,27.35
2023-04-14T21:15:30.715Z,27.61
2023-04-14T21:16:20.677Z,27.50
2023-04-14T21:18:49.145Z,27.86
2023-04-14T21:21:18.965Z,27.56
2023-04-14T21:23:47.301Z,27.27
2023-04-14T21:26:16.184Z,27.53
2023-04-14T21:28:44.441Z,27.40
2023-04-14T21:31:13.303Z,27.58
2023-04-14T21:33:42.020Z,27.83
2023-04-14T21:36:10.908Z,27.72
2023-04-14T21:38:43.660Z,27.48
2023-04-14T21:41:13.238Z,27.72
2023-04-14T21:43:44.232Z,27.32
2023-04-14T21:46:12.815Z,27.67
2023-04-14T21:48:41.262Z,27.42
2023-04-14T21:51:10.202Z,27.57
2023-04-14T21:53:38.539Z,27.65
2023-04-14T21:56:10.960Z,27.69
2023-04-14T21:58:40.399Z,27.93
2023-04-14T22:01:09.789Z,27.91
2023-04-14T22:03:43.736Z,27.93
2023-04-14T22:06:12.474Z,27.52
2023-04-14T22:08:41.404Z,27.28
2023-04-14T22:11:11.497Z,27.81
2023-04-14T22:13:40.329Z,27.99
2023-04-14T22:16:11.340Z,27.60
2023-04-14T22:18:40.944Z,27.84
2023-04-14T22:21:14.426Z,27.48
2023-04-14T22:23:44.221Z,27.58
2023-04-14T22:26:14.526Z,27.98
2023-04-14T22:28:43.598Z,28.02
2023-04-14T22:31:12.061Z,27.75
2023-04-14T22:33:40.638Z,27.81
2023-04-14T22:36:09.760Z,27.92
2023-04-14T22:38:38.502Z,28.26
2023-04-14T22:41:10.100Z,28.27
2023-04-14T22:43:39.975Z,27.91
2023-04-14T22:46:08.466Z,27.74
2023-04-14T22:48:36.953Z,27.58
2023-04-14T22:51:05.503Z,28.22
2023-04-14T22:53:34.407Z,27.61
2023-04-14T22:56:03.622Z,27.79
2023-04-14T22:58:39.235Z,28.07
2023-04-14T23:01:21.268Z,28.34
2023-04-14T23:03:52.703Z,27.98
2023-04-14T23:06:23.085Z,28.27
2023-04-14T23:08:52.184Z,28.36
2023-04-14T23:11:21.202Z,28.01
2023-04-14T23:13:50.575Z,28.35
2023-04-14T23:16:21.142Z,28.65
2023-04-14T23:18:52.682Z,28.71
2023-04-14T23:21:22.296Z,28.83
2023-04-14T23:23:51.270Z,29.20
2023-04-14T23:26:20.657Z,28.42
2023-04-14T23:28:49.260Z,28.19
2023-04-14T23:31:18.770Z,28.27
2023-04-14T23:33:51.103Z,28.88
2023-04-14T23:36:20.107Z,28.25
2023-04-14T23:38:48.585Z,28.25
2023-04-14T23:41:17.859Z,28.36
2023-04-14T23:43:49.158Z,28.44
2023-04-14T23:46:17.631Z,28.81
2023-04-14T23:48:46.184Z,28.33
2023-04-14T23:51:18.256Z,28.71
2023-04-14T23:53:50.335Z,28.81
2023-04-14T23:56:18.718Z,29.04
2023-04-14T23:58:47.199Z,29.01
